createdAt,value
2023-12-08T00:01:19.544Z,27.85
2023-12-08T00:03:46.901Z,26.25
2023-12-08T00:06:13.991Z,25.05
2023-12-08T00:08:42.604Z,22.98
2023-12-08T00:11:12.418Z,21.48
2023-12-08T00:13:39.801Z,19.77
2023-12-08T00:16:07.087Z,18.40
2023-12-08T00:18:34.454Z,18.27
2023-12-08T00:21:01.478Z,20.92
2023-12-08T00:23:29.025Z,18.95
2023-12-08T00:25:56.104Z,21.30
2023-12-08T00:28:23.315Z,18.83
2023-12-08T00:30:50.211Z,19.92
2023-12-08T00:33:17.855Z,18.35
2023-12-08T00:35:45.134Z,19.58
2023-12-08T00:38:12.463Z,23.30
2023-12-08T00:40:39.546Z,17.92
2023-12-08T00:43:06.776Z,17.52
2023-12-08T00:45:33.857Z,14.85
2023-12-08T00:48:01.173Z,16.52
2023-12-08T00:50:28.273Z,14.82
2023-12-08T00:52:55.721Z,14.10
2023-12-08T00:55:22.699Z,17.05
2023-12-08T00:57:50.041Z,16.88
2023-12-08T01:00:19.070Z,14.35
2023-12-08T01:02:46.610Z,19.80
2023-12-08T01:05:13.580Z,16.23
2023-12-08T01:07:40.863Z,16.75
2023-12-08T01:10:08.584Z,15.73
2023-12-08T01:12:36.971Z,12.60
2023-12-08T01:15:05.589Z,12.18
2023-12-08T01:17:32.953Z,12.77
2023-12-08T01:20:00.048Z,11.07
2023-12-08T01:22:29.264Z,11.32
2023-12-08T01:24:56.508Z,12.73
2023-12-08T01:27:24.340Z,9.68
2023-12-08T01:29:52.046Z,9.75
2023-12-08T01:32:19.262Z,8.98
2023-12-08T01:34:46.196Z,11.57
2023-12-08T01:37:13.420Z,10.27
2023-12-08T01:39:41.276Z,8.80
2023-12-08T01:42:08.502Z,10.50
2023-12-08T01:44:35.551Z,8.55
2023-12-08T01:47:03.306Z,8.93
2023-12-08T01:49:31.000Z,9.90
2023-12-08T01:51:58.410Z,8.73
2023-12-08T01:54:26.512Z,9.75
2023-12-08T01:56:53.942Z,10.57
2023-12-08T01:59:22.458Z,8.90
2023-12-08T02:01:49.895Z,13.38
2023-12-08T02:04:17.231Z,9.30
2023-12-08T02:06:44.542Z,11.10
2023-12-08T02:09:11.782Z,9.00
2023-12-08T02:11:39.513Z,10.52
2023-12-08T02:14:06.838Z,9.40
2023-12-08T02:16:54.261Z,9.43
2023-12-08T02:19:22.496Z,8.35
2023-12-08T02:21:50.237Z,8.13
2023-12-08T02:24:20.653Z,7.75
2023-12-08T02:26:50.463Z,8.45
2023-12-08T02:29:18.228Z,7.70
2023-12-08T02:31:53.065Z,7.90
2023-12-08T02:34:25.784Z,8.85
2023-12-08T02:36:55.480Z,8.38
2023-12-08T02:39:23.920Z,8.02
2023-12-08T02:41:52.636Z,9.32
2023-12-08T02:44:19.616Z,8.13
2023-12-08T02:46:47.892Z,7.30
2023-12-08T02:49:15.074Z,7.75
2023-12-08T02:51:42.328Z,9.60
2023-12-08T02:54:09.399Z,8.10
2023-12-08T02:56:36.685Z,8.80
2023-12-08T02:59:03.625Z,8.93
2023-12-08T03:01:30.888Z,8.98
2023-12-08T03:03:58.278Z,9.93
2023-12-08T03:06:25.569Z,9.50
2023-12-08T03:08:52.494Z,9.25
2023-12-08T03:11:19.792Z,10.10
2023-12-08T03:13:46.836Z,8.60
2023-12-08T03:16:14.099Z,8.82
2023-12-08T03:18:41.112Z,10.35
2023-12-08T03:21:08.414Z,8.10
2023-12-08T03:23:35.889Z,8.48
2023-12-08T03:26:03.858Z,9.18
2023-12-08T03:28:30.745Z,8.20
2023-12-08T03:30:57.925Z,8.60
2023-12-08T03:33:24.988Z,7.70
2023-12-08T03:35:52.296Z,9.10
2023-12-08T03:38:19.278Z,7.32
2023-12-08T03:40:46.448Z,8.50
2023-12-08T03:43:13.453Z,7.38
2023-12-08T03:45:40.580Z,7.53
2023-12-08T03:48:07.634Z,10.00
2023-12-08T03:50:34.944Z,7.65
2023-12-08T03:53:01.924Z,9.20
2023-12-08T03:55:29.136Z,8.82
2023-12-08T03:57:56.057Z,7.78
2023-12-08T04:00:23.406Z,10.00
2023-12-08T04:02:50.447Z,8.57
2023-12-08T04:05:17.707Z,8.82
2023-12-08T04:07:44.666Z,8.95
2023-12-08T04:10:11.775Z,11.30
2023-12-08T04:12:38.742Z,10.10
2023-12-08T04:15:06.932Z,8.45
2023-12-08T04:17:34.087Z,9.25
2023-12-08T04:20:01.891Z,10.65
2023-12-08T04:22:28.966Z,9.20
2023-12-08T04:24:56.312Z,10.73
2023-12-08T04:27:23.532Z,11.30
2023-12-08T04:29:51.083Z,10.35
2023-12-08T04:32:18.124Z,12.15
2023-12-08T04:34:45.407Z,13.02
2023-12-08T04:37:12.429Z,11.23
2023-12-08T04:39:39.912Z,13.52
2023-12-08T04:42:07.031Z,17.33
2023-12-08T04:44:34.652Z,15.07
2023-12-08T04:47:01.747Z,13.65
2023-12-08T04:49:29.360Z,13.93
2023-12-08T04:51:56.382Z,21.15
2023-12-08T04:54:23.616Z,19.30
2023-12-08T04:56:50.659Z,17.48
2023-12-08T04:59:17.943Z,20.83
2023-12-08T05:01:44.940Z,19.13
2023-12-08T05:04:12.395Z,23.40
2023-12-08T05:06:39.401Z,24.13
2023-12-08T05:09:06.712Z,19.83
2023-12-08T05:11:33.891Z,22.30
2023-12-08T05:14:01.346Z,24.75
2023-12-08T05:16:28.305Z,22.20
2023-12-08T05:18:55.624Z,25.38
2023-12-08T05:21:22.788Z,27.75
2023-12-08T05:23:50.023Z,27.40
2023-12-08T05:26:17.040Z,29.45
2023-12-08T05:28:44.389Z,29.38
2023-12-08T05:31:11.445Z,28.25
2023-12-08T05:33:38.935Z,29.85
2023-12-08T05:36:07.125Z,28.63
2023-12-08T05:38:34.492Z,29.67
2023-12-08T05:41:01.453Z,33.28
2023-12-08T05:43:29.556Z,29.70
2023-12-08T05:45:56.817Z,30.23
2023-12-08T05:48:24.595Z,33.03
2023-12-08T05:50:51.720Z,31.52
2023-12-08T05:53:19.088Z,35.28
2023-12-08T05:55:46.105Z,38.13
2023-12-08T05:58:13.360Z,32.30
2023-12-08T06:00:40.348Z,36.22
2023-12-08T06:03:07.515Z,35.88
2023-12-08T06:05:34.780Z,34.97
2023-12-08T06:08:02.043Z,32.33
2023-12-08T06:10:29.042Z,39.35
2023-12-08T06:12:56.300Z,34.97
2023-12-08T06:15:23.398Z,39.47
2023-12-08T06:17:50.770Z,36.92
2023-12-08T06:20:17.897Z,36.65
2023-12-08T06:22:45.227Z,38.35
2023-12-08T06:25:12.235Z,37.17
2023-12-08T06:27:39.500Z,35.08
2023-12-08T06:30:12.522Z,35.67
2023-12-08T06:32:39.989Z,35.63
2023-12-08T06:35:08.050Z,36.55
2023-12-08T06:37:36.326Z,30.48
2023-12-08T06:40:04.964Z,34.53
2023-12-08T06:42:32.199Z,36.85
2023-12-08T06:45:00.446Z,34.35
2023-12-08T06:47:28.404Z,34.55
2023-12-08T06:49:55.578Z,28.55
2023-12-08T06:52:22.903Z,36.20
2023-12-08T06:54:50.746Z,28.58
2023-12-08T06:57:18.145Z,32.92
2023-12-08T06:59:45.177Z,30.20
2023-12-08T07:02:12.551Z,34.67
2023-12-08T07:04:39.583Z,38.13
2023-12-08T07:07:06.980Z,34.92
2023-12-08T07:09:33.984Z,36.80
2023-12-08T07:12:01.321Z,42.03
2023-12-08T07:14:28.371Z,37.28
2023-12-08T07:16:58.644Z,31.13
2023-12-08T07:19:25.658Z,36.17
2023-12-08T07:21:53.038Z,30.60
2023-12-08T07:24:20.101Z,33.38
2023-12-08T07:26:47.413Z,37.28
2023-12-08T07:29:14.400Z,36.33
2023-12-08T07:31:41.640Z,37.38
2023-12-08T07:34:08.645Z,32.38
2023-12-08T07:36:35.918Z,36.47
2023-12-08T07:39:02.973Z,30.55
2023-12-08T07:41:30.271Z,31.38
2023-12-08T07:43:57.906Z,30.92
2023-12-08T07:46:25.382Z,33.72
2023-12-08T07:48:52.475Z,30.58
2023-12-08T07:51:20.436Z,47.08
2023-12-08T07:53:47.459Z,38.90
2023-12-08T07:56:15.103Z,38.15
2023-12-08T07:58:42.139Z,34.53
2023-12-08T08:01:10.172Z,36.17
2023-12-08T08:03:37.184Z,35.33
2023-12-08T08:06:05.237Z,47.45
2023-12-08T08:08:34.374Z,40.03
2023-12-08T08:11:01.779Z,38.58
2023-12-08T08:13:28.902Z,41.15
2023-12-08T08:15:56.196Z,36.53
2023-12-08T08:18:23.350Z,39.35
2023-12-08T08:20:50.832Z,36.08
2023-12-08T08:23:17.825Z,41.47
2023-12-08T08:25:45.071Z,41.38
2023-12-08T08:28:12.086Z,41.40
2023-12-08T08:30:43.164Z,44.70
2023-12-08T08:33:10.451Z,38.28
2023-12-08T08:35:40.672Z,42.88
2023-12-08T08:38:08.155Z,40.65
2023-12-08T08:40:35.531Z,38.65
2023-12-08T08:43:02.609Z,39.15
2023-12-08T08:45:29.905Z,32.20
2023-12-08T08:47:57.023Z,35.03
2023-12-08T08:50:25.039Z,36.47
2023-12-08T08:52:52.948Z,34.13
2023-12-08T08:55:20.138Z,36.03
2023-12-08T08:57:48.441Z,38.03
2023-12-08T09:00:16.138Z,39.42
2023-12-08T09:02:45.364Z,35.65
2023-12-08T09:05:13.237Z,45.88
2023-12-08T09:07:40.265Z,32.75
2023-12-08T09:10:08.719Z,32.90
2023-12-08T09:12:35.845Z,31.65
2023-12-08T09:15:04.932Z,32.35
2023-12-08T09:17:32.072Z,33.47
2023-12-08T09:19:59.395Z,29.40
2023-12-08T09:22:26.609Z,29.98
2023-12-08T09:24:54.111Z,33.00
2023-12-08T09:27:21.117Z,32.55
2023-12-08T09:29:48.413Z,36.33
2023-12-08T09:32:15.573Z,31.92
2023-12-08T09:34:43.237Z,33.08
2023-12-08T09:37:26.702Z,29.60
2023-12-08T09:39:58.192Z,30.83
2023-12-08T09:42:35.436Z,30.02
2023-12-08T09:45:06.169Z,29.85
2023-12-08T09:47:37.629Z,31.85
2023-12-08T09:50:08.527Z,34.58
2023-12-08T09:52:36.173Z,30.05
2023-12-08T09:55:05.295Z,29.17
2023-12-08T09:57:35.050Z,45.25
2023-12-08T10:00:11.727Z,31.23
2023-12-08T10:02:39.137Z,34.97
2023-12-08T10:05:10.907Z,33.40
2023-12-08T10:07:41.877Z,36.58
2023-12-08T10:10:11.180Z,33.72
2023-12-08T10:12:41.387Z,37.88
2023-12-08T10:15:13.476Z,31.88
2023-12-08T10:17:53.313Z,36.92
2023-12-08T10:20:22.735Z,36.80
2023-12-08T10:23:02.757Z,35.50
2023-12-08T10:25:32.307Z,39.30
2023-12-08T10:27:59.400Z,34.38
2023-12-08T10:30:28.303Z,39.88
2023-12-08T10:32:55.931Z,35.20
2023-12-08T10:35:23.642Z,31.80
2023-12-08T10:37:51.610Z,32.47
2023-12-08T10:40:20.200Z,33.42
2023-12-08T10:42:51.159Z,40.10
2023-12-08T10:45:18.879Z,36.00
2023-12-08T10:47:51.158Z,32.45
2023-12-08T10:50:20.791Z,37.47
2023-12-08T10:52:49.435Z,32.83
2023-12-08T10:55:17.198Z,37.72
2023-12-08T10:57:49.315Z,36.33
2023-12-08T11:00:20.453Z,38.47
2023-12-08T11:02:50.441Z,34.38
2023-12-08T11:05:29.931Z,34.17
2023-12-08T11:08:05.162Z,33.70
2023-12-08T11:10:39.130Z,32.90
2023-12-08T11:13:39.517Z,32.67
2023-12-08T11:16:30.700Z,35.97
2023-12-08T11:18:58.484Z,36.38
2023-12-08T11:21:27.527Z,34.42
2023-12-08T11:23:56.059Z,40.45
2023-12-08T11:26:54.262Z,35.70
2023-12-08T11:29:51.406Z,35.17
2023-12-08T11:32:30.811Z,40.13
2023-12-08T11:35:02.689Z,35.67
2023-12-08T11:37:30.643Z,31.98
2023-12-08T11:40:08.726Z,35.47
2023-12-08T11:42:36.103Z,33.33
2023-12-08T11:45:03.297Z,37.65
2023-12-08T11:47:32.288Z,32.45
2023-12-08T11:50:08.459Z,38.05
2023-12-08T11:52:38.560Z,30.60
2023-12-08T11:55:22.648Z,30.35
2023-12-08T11:58:02.854Z,32.65
2023-12-08T12:00:38.874Z,33.50
2023-12-08T12:03:09.778Z,36.00
2023-12-08T12:05:37.667Z,29.77
2023-12-08T12:08:08.270Z,32.42
2023-12-08T12:10:36.735Z,34.55
2023-12-08T12:13:15.197Z,33.55
2023-12-08T12:15:43.837Z,31.02
2023-12-08T12:18:15.532Z,28.42
2023-12-08T12:20:44.183Z,28.38
2023-12-08T12:23:16.106Z,29.83
2023-12-08T12:25:47.051Z,30.88
2023-12-08T12:28:18.324Z,28.50
2023-12-08T12:30:49.927Z,32.47
2023-12-08T12:33:17.475Z,32.50
2023-12-08T12:35:48.973Z,29.80
2023-12-08T12:38:21.238Z,30.80
2023-12-08T12:40:48.211Z,34.35
2023-12-08T12:43:21.022Z,35.13
2023-12-08T12:45:50.398Z,35.40
2023-12-08T12:48:23.828Z,29.75
2023-12-08T12:50:55.639Z,31.13
2023-12-08T12:53:24.144Z,29.98
2023-12-08T12:56:05.548Z,36.25
2023-12-08T12:58:32.804Z,40.63
2023-12-08T13:01:14.276Z,37.60
2023-12-08T13:03:46.964Z,31.55
2023-12-08T13:06:14.370Z,32.30
2023-12-08T13:08:45.169Z,33.90
2023-12-08T13:11:12.277Z,34.22
2023-12-08T13:13:39.514Z,33.72
2023-12-08T13:16:08.344Z,30.98
2023-12-08T13:18:36.372Z,31.77
2023-12-08T13:21:04.128Z,37.22
2023-12-08T13:23:31.559Z,31.40
2023-12-08T13:26:01.540Z,38.97
2023-12-08T13:28:28.906Z,37.03
2023-12-08T13:30:55.788Z,38.70
2023-12-08T13:33:24.289Z,33.08
2023-12-08T13:35:53.910Z,33.58
2023-12-08T13:38:22.893Z,39.25
2023-12-08T13:40:53.082Z,50.63
2023-12-08T13:43:20.391Z,30.98
2023-12-08T13:45:47.324Z,31.10
2023-12-08T13:48:17.655Z,39.70
2023-12-08T13:50:54.264Z,35.05
2023-12-08T13:53:26.810Z,35.60
2023-12-08T13:55:55.888Z,36.22
2023-12-08T13:58:23.135Z,47.28
2023-12-08T14:00:50.176Z,35.30
2023-12-08T14:03:17.547Z,33.67
2023-12-08T14:05:45.771Z,33.00
2023-12-08T14:08:13.008Z,37.25
2023-12-08T14:10:39.930Z,37.42
2023-12-08T14:13:07.407Z,34.08
2023-12-08T14:15:34.811Z,32.92
2023-12-08T14:18:02.455Z,46.03
2023-12-08T14:20:29.726Z,31.48
2023-12-08T14:22:57.005Z,33.45
2023-12-08T14:25:23.951Z,35.47
2023-12-08T14:27:51.309Z,33.03
2023-12-08T14:30:18.335Z,35.08
2023-12-08T14:32:45.812Z,36.22
2023-12-08T14:35:19.377Z,35.65
2023-12-08T14:37:54.035Z,36.15
2023-12-08T14:40:21.259Z,35.17
2023-12-08T14:42:50.011Z,37.97
2023-12-08T14:45:17.958Z,33.53
2023-12-08T14:47:45.550Z,38.05
2023-12-08T14:50:12.767Z,38.40
2023-12-08T14:52:40.997Z,38.60
2023-12-08T14:55:15.922Z,35.38
2023-12-08T14:57:45.849Z,35.80
2023-12-08T15:00:14.142Z,41.22
2023-12-08T15:02:41.510Z,41.47
2023-12-08T15:05:09.129Z,40.65
2023-12-08T15:07:36.565Z,40.47
2023-12-08T15:10:06.049Z,40.55
2023-12-08T15:12:36.345Z,32.83
2023-12-08T15:15:07.211Z,33.17
2023-12-08T15:17:36.021Z,34.83
2023-12-08T15:20:05.457Z,37.92
2023-12-08T15:22:34.305Z,47.85
2023-12-08T15:25:01.325Z,44.38
2023-12-08T15:27:29.021Z,35.92
2023-12-08T15:29:57.619Z,37.83
2023-12-08T15:32:25.138Z,32.80
2023-12-08T15:34:52.166Z,42.97
2023-12-08T15:37:19.343Z,39.63
2023-12-08T15:39:46.279Z,42.38
2023-12-08T15:42:13.570Z,41.58
2023-12-08T15:44:41.953Z,44.63
2023-12-08T15:47:09.179Z,41.53
2023-12-08T15:49:36.645Z,38.03
2023-12-08T15:52:04.583Z,41.72
2023-12-08T15:54:35.723Z,42.95
2023-12-08T15:57:32.662Z,42.17
2023-12-08T16:00:02.778Z,40.17
2023-12-08T16:02:30.136Z,42.28
2023-12-08T16:04:57.223Z,42.22
2023-12-08T16:07:25.794Z,42.42
2023-12-08T16:09:53.047Z,40.63
2023-12-08T16:12:20.741Z,42.72
2023-12-08T16:14:47.981Z,43.03
2023-12-08T16:17:15.840Z,38.63
2023-12-08T16:19:46.053Z,45.25
2023-12-08T16:22:13.328Z,48.83
2023-12-08T16:24:47.331Z,46.10
2023-12-08T16:27:25.401Z,42.08
2023-12-08T16:29:53.066Z,37.60
2023-12-08T16:32:20.550Z,43.58
2023-12-08T16:34:47.680Z,40.38
2023-12-08T16:37:15.412Z,39.65
2023-12-08T16:39:42.523Z,41.97
2023-12-08T16:42:53.554Z,44.47
2023-12-08T16:45:20.735Z,41.15
2023-12-08T16:47:48.288Z,40.42
2023-12-08T16:50:15.542Z,38.25
2023-12-08T16:52:42.865Z,41.85
2023-12-08T16:55:09.998Z,38.83
2023-12-08T16:57:37.596Z,35.17
2023-12-08T17:00:05.503Z,36.53
2023-12-08T17:02:32.818Z,41.50
2023-12-08T17:04:59.890Z,37.40
2023-12-08T17:07:27.241Z,34.17
2023-12-08T17:09:54.594Z,37.95
2023-12-08T17:12:21.997Z,37.38
2023-12-08T17:14:49.335Z,35.50
2023-12-08T17:17:20.377Z,36.88
2023-12-08T17:19:48.658Z,39.80
2023-12-08T17:22:17.332Z,40.65
2023-12-08T17:24:44.333Z,38.33
2023-12-08T17:27:11.912Z,40.72
2023-12-08T17:29:38.915Z,39.75
2023-12-08T17:32:06.293Z,39.10
2023-12-08T17:34:33.427Z,41.30
2023-12-08T17:37:00.782Z,38.78
2023-12-08T17:39:27.999Z,40.92
2023-12-08T17:41:55.352Z,38.80
2023-12-08T17:44:22.324Z,37.40
2023-12-08T17:46:49.613Z,37.33
2023-12-08T17:49:16.661Z,40.47
2023-12-08T17:51:44.011Z,36.22
2023-12-08T17:54:10.986Z,40.00
2023-12-08T17:56:38.216Z,45.55
2023-12-08T17:59:05.135Z,39.60
2023-12-08T18:01:32.412Z,39.88
2023-12-08T18:03:59.414Z,42.13
2023-12-08T18:06:27.300Z,39.63
2023-12-08T18:09:31.370Z,42.55
2023-12-08T18:11:58.876Z,42.25
2023-12-08T18:14:53.043Z,41.40
2023-12-08T18:17:53.376Z,40.92
2023-12-08T18:20:20.744Z,40.10
2023-12-08T18:22:47.930Z,42.33
2023-12-08T18:25:15.016Z,38.05
2023-12-08T18:27:57.413Z,40.05
2023-12-08T18:30:45.808Z,38.45
2023-12-08T18:33:18.581Z,45.55
2023-12-08T18:35:45.645Z,43.63
2023-12-08T18:38:13.110Z,43.55
2023-12-08T18:40:40.063Z,43.60
2023-12-08T18:43:07.277Z,43.40
2023-12-08T18:45:34.395Z,39.45
2023-12-08T18:48:48.787Z,41.47
2023-12-08T18:51:16.927Z,42.75
2023-12-08T18:53:44.838Z,42.83
2023-12-08T18:56:11.850Z,46.55
2023-12-08T18:58:39.117Z,44.42
2023-12-08T19:01:07.183Z,43.50
2023-12-08T19:07:05.824Z,41.70
2023-12-08T19:09:32.976Z,47.72
2023-12-08T19:12:03.947Z,47.22
2023-12-08T19:14:31.670Z,47.22
2023-12-08T19:16:58.988Z,51.25
2023-12-08T19:19:36.374Z,47.25
2023-12-08T19:22:04.099Z,48.33
2023-12-08T19:24:31.951Z,49.50
2023-12-08T19:27:35.117Z,48.03
2023-12-08T19:30:02.239Z,51.03
2023-12-08T19:32:38.990Z,45.60
2023-12-08T19:35:07.922Z,46.30
2023-12-08T19:37:35.342Z,47.53
2023-12-08T19:40:21.065Z,46.95
2023-12-08T19:43:32.098Z,50.45
2023-12-08T19:45:59.713Z,46.88
2023-12-08T19:48:27.910Z,49.72
2023-12-08T19:50:55.161Z,53.28
2023-12-08T19:56:12.066Z,51.70
2023-12-08T19:59:04.253Z,53.90
2023-12-08T20:01:31.284Z,51.30
2023-12-08T20:03:59.045Z,55.33
2023-12-08T20:06:26.437Z,50.78
2023-12-08T20:08:53.790Z,56.58
2023-12-08T20:12:07.201Z,46.85
2023-12-08T20:14:36.636Z,52.92
2023-12-08T20:17:05.117Z,50.08
2023-12-08T20:19:32.851Z,54.95
2023-12-08T20:22:49.412Z,50.00
2023-12-08T20:25:18.754Z,49.10
2023-12-08T20:31:23.925Z,50.17
2023-12-08T20:34:39.452Z,52.13
2023-12-08T20:37:06.779Z,43.70
2023-12-08T20:39:33.739Z,49.58
2023-12-08T20:42:01.106Z,52.55
2023-12-08T20:44:28.088Z,50.13
2023-12-08T20:46:57.467Z,49.50
2023-12-08T20:49:24.638Z,51.03
2023-12-08T20:51:51.995Z,54.78
2023-12-08T20:54:19.169Z,61.38
2023-12-08T20:56:46.580Z,52.65
2023-12-08T20:59:13.606Z,52.88
2023-12-08T21:01:41.333Z,50.88
2023-12-08T21:04:08.637Z,57.45
2023-12-08T21:06:36.102Z,51.83
2023-12-08T21:09:03.521Z,59.13
2023-12-08T21:11:31.463Z,55.90
2023-12-08T21:14:00.379Z,52.22
2023-12-08T21:16:27.693Z,50.65
2023-12-08T21:18:54.931Z,54.83
2023-12-08T21:21:22.535Z,56.05
2023-12-08T21:23:49.787Z,53.35
2023-12-08T21:26:17.246Z,48.88
2023-12-08T21:28:44.448Z,50.90
2023-12-08T21:31:11.702Z,53.00
2023-12-08T21:33:39.297Z,51.35
2023-12-08T21:36:06.825Z,53.67
2023-12-08T21:38:33.834Z,49.63
2023-12-08T21:41:01.082Z,55.65
2023-12-08T21:43:28.184Z,47.45
2023-12-08T21:45:55.531Z,54.08
2023-12-08T21:48:22.930Z,51.83
2023-12-08T21:50:50.367Z,50.40
2023-12-08T21:53:17.442Z,47.60
2023-12-08T21:55:45.366Z,55.85
2023-12-08T21:58:12.444Z,46.45
2023-12-08T22:00:40.440Z,53.45
2023-12-08T22:03:07.889Z,51.40
2023-12-08T22:05:35.335Z,47.03
2023-12-08T22:08:02.451Z,51.97
2023-12-08T22:10:29.657Z,49.83
2023-12-08T22:12:56.577Z,51.65
2023-12-08T22:15:23.918Z,51.20
2023-12-08T22:17:51.149Z,49.78
2023-12-08T22:20:18.451Z,52.00
2023-12-08T22:22:45.562Z,50.67
2023-12-08T22:25:12.908Z,49.55
2023-12-08T22:27:39.979Z,47.03
2023-12-08T22:30:08.297Z,52.55
2023-12-08T22:33:02.168Z,48.92
2023-12-08T22:35:29.569Z,49.13
2023-12-08T22:37:56.619Z,54.67
2023-12-08T22:40:23.767Z,54.13
2023-12-08T22:42:50.916Z,53.00
2023-12-08T22:45:18.178Z,46.00
2023-12-08T22:47:45.218Z,51.53
2023-12-08T22:50:12.777Z,49.35
2023-12-08T22:52:39.952Z,47.42
2023-12-08T22:55:08.404Z,48.28
2023-12-08T22:57:35.543Z,51.22
2023-12-08T23:00:03.163Z,48.70
2023-12-08T23:02:30.403Z,48.17
2023-12-08T23:04:57.739Z,48.60
2023-12-08T23:07:24.777Z,50.83
2023-12-08T23:09:52.049Z,51.67
2023-12-08T23:12:19.045Z,53.45
2023-12-08T23:14:46.290Z,51.75
2023-12-08T23:17:13.190Z,47.63
2023-12-08T23:19:41.631Z,49.70
2023-12-08T23:22:08.852Z,50.30
2023-12-08T23:24:36.162Z,43.42
2023-12-08T23:27:03.306Z,43.83
2023-12-08T23:29:30.566Z,44.50
2023-12-08T23:31:57.625Z,46.20
2023-12-08T23:34:25.221Z,48.45
2023-12-08T23:36:52.349Z,46.80
2023-12-08T23:39:19.777Z,45.50
2023-12-08T23:41:46.880Z,47.13
2023-12-08T23:44:14.339Z,45.08
2023-12-08T23:46:41.364Z,47.33
2023-12-08T23:49:08.911Z,46.95
2023-12-08T23:51:36.238Z,48.83
2023-12-08T23:54:03.649Z,46.25
2023-12-08T23:56:30.728Z,44.33
2023-12-08T23:58:57.964Z,48.35
